Strang, Nebraska
Current Conditions -  °F | °C
As of 1:55 AM on Wednesday 26 Nov 2014 (Local Time) from KHJH Reporting Station
Scattered Clouds Scattered Clouds  
Wind Chill: 34°   Ceiling: Unl
Heat Index: 41°   Visibility: 10mi
Dew Point: 29°   Wind: 10mph
Humidity: 64%   Direction: 300°WNW
Pressure: 29.93"   Gusts: 17mph
Location:  40.42°N, 97.59°W
Report Text: KHJH 260755Z AUTO 30009G15KT 10SM SCT120 05/M02 A2993 RMK AO2 T00481016
Loading
Personal Weather Stations






























Interactive Weather Map New forecast layout! Learn more

10-Day Weather Forecast

Advertisements
Track Severe Weather on mobile